Time;durP1;ratioP1;P1;durP2;ratioP2;P2;SDS_P1;SDS_P2;PMS_P1;PMS_P2;Temp;Humidity;BMP_temperature;BMP_pressure;BME280_temperature;BME280_humidity;BME280_pressure;Samples;Min_cycle;Max_cycle;Signal;HPM_P1;HPM_P2
2024/01/08 00:01:47;;;;;;;;;;;0.40;99.90;;;;;;2616050;54;20548;-68
2024/01/08 00:04:17;;;;;;;;;;;0.40;99.90;;;;;;2620185;47;19938;-70
2024/01/08 00:06:47;;;;;;;;;;;0.40;99.90;;;;;;2618851;47;19950;-67
2024/01/08 00:09:20;;;;;;;;;;;0.40;99.90;;;;;;2616148;54;19947;-69
2024/01/08 00:11:50;;;;;;;;;;;0.40;99.90;;;;;;2617663;54;20030;-69
2024/01/08 00:14:20;;;;;;;;;;;0.50;99.90;;;;;;2616893;54;19977;-71
2024/01/08 00:16:50;;;;;;;;;;;0.60;99.90;;;;;;2617673;54;19950;-69
2024/01/08 00:19:20;;;;;;;;;;;0.70;99.90;;;;;;2620007;39;20356;-69
2024/01/08 00:21:49;;;;;;;;;;;0.70;99.90;;;;;;2619678;54;19946;-69
2024/01/08 00:24:22;;;;;;;;;;;0.80;99.90;;;;;;2620365;47;19950;-69
2024/01/08 00:26:51;;;;;;;;;;;0.70;99.90;;;;;;2617504;54;20084;-70
2024/01/08 00:29:21;;;;;;;;;;;0.70;99.90;;;;;;2616027;54;19946;-69
2024/01/08 00:31:51;;;;;;;;;;;0.70;99.90;;;;;;2617582;54;20445;-69
2024/01/08 00:34:20;;;;;;;;;;;0.70;99.90;;;;;;2616500;47;19953;-69
2024/01/08 00:36:50;;;;;;;;;;;0.70;99.90;;;;;;2616575;54;19950;-70
2024/01/08 00:39:22;;;;;;;;;;;0.80;99.90;;;;;;2616430;54;20452;-70
2024/01/08 00:41:52;;;;;;;;;;;0.90;99.90;;;;;;2616669;54;19957;-69
2024/01/08 00:44:22;;;;;;;;;;;1.00;99.90;;;;;;2616802;47;20042;-68
2024/01/08 00:46:52;;;;;;;;;;;0.90;99.90;;;;;;2616654;47;19992;-67
2024/01/08 00:49:22;;;;;;;;;;;0.90;99.90;;;;;;2616659;54;19947;-67
2024/01/08 00:51:52;;;;;;;;;;;0.90;99.90;;;;;;2617872;54;19946;-70
2024/01/08 00:54:24;;;;;;;;;;;0.90;99.90;;;;;;2622718;54;20726;-67
2024/01/08 00:56:54;;;;;;;;;;;0.90;99.90;;;;;;2621901;54;19954;-69
2024/01/08 00:59:23;;;;;;;;;;;0.90;99.90;;;;;;2618330;54;19946;-70
2024/01/08 01:01:53;;;;;;;;;;;0.90;99.90;;;;;;2615246;54;19953;-68
2024/01/08 01:04:23;;;;;;;;;;;0.80;99.90;;;;;;2617306;48;19946;-68
2024/01/08 01:06:53;;;;;;;;;;;0.80;99.90;;;;;;2617089;54;19946;-68
2024/01/08 01:09:25;;;;;;;;;;;0.80;99.90;;;;;;2615569;54;20733;-68
2024/01/08 01:11:56;;;;;;;;;;;0.80;99.90;;;;;;2616150;47;19947;-68
2024/01/08 01:14:25;;;;;;;;;;;0.80;99.90;;;;;;2616778;54;19946;-69
2024/01/08 01:16:55;;;;;;;;;;;0.80;99.90;;;;;;2615102;54;19951;-68
2024/01/08 01:19:25;;;;;;;;;;;0.80;99.90;;;;;;2616563;54;20426;-69
2024/01/08 01:21:55;;;;;;;;;;;0.90;99.90;;;;;;2616784;47;19992;-69
2024/01/08 01:24:27;;;;;;;;;;;0.80;99.90;;;;;;2616218;54;19951;-69
2024/01/08 01:26:57;;;;;;;;;;;0.80;99.90;;;;;;2615268;54;19950;-70
2024/01/08 01:29:27;;;;;;;;;;;0.90;99.90;;;;;;2616500;47;19954;-68
2024/01/08 01:31:58;;;;;;;;;;;0.90;99.90;;;;;;2616163;54;19953;-68
2024/01/08 01:34:32;;;;;;;;;;;0.90;99.90;;;;;;2616325;47;19946;-68
2024/01/08 01:37:02;;;;;;;;;;;0.90;99.90;;;;;;2616568;54;19938;-68
2024/01/08 01:39:34;;;;;;;;;;;0.90;99.90;;;;;;2617293;39;20349;-69
2024/01/08 01:42:03;;;;;;;;;;;0.90;99.90;;;;;;2617059;39;20338;-68
2024/01/08 01:44:33;;;;;;;;;;;0.80;99.90;;;;;;2616594;54;20715;-68
2024/01/08 01:47:03;;;;;;;;;;;0.60;99.90;;;;;;2616739;54;20034;-68
2024/01/08 01:49:33;;;;;;;;;;;0.60;99.90;;;;;;2616140;54;19945;-68
2024/01/08 01:52:02;;;;;;;;;;;0.50;99.90;;;;;;2616175;54;20449;-67
2024/01/08 01:54:35;;;;;;;;;;;0.50;99.90;;;;;;2615372;54;20046;-69
2024/01/08 01:57:11;;;;;;;;;;;0.60;99.90;;;;;;2615930;54;20061;-71
2024/01/08 01:59:40;;;;;;;;;;;0.70;99.90;;;;;;2614811;47;19946;-68
2024/01/08 02:02:11;;;;;;;;;;;0.70;99.90;;;;;;2615946;54;19946;-69
2024/01/08 02:04:41;;;;;;;;;;;0.70;99.90;;;;;;2616633;54;19951;-70
2024/01/08 02:07:11;;;;;;;;;;;0.70;99.90;;;;;;2617897;54;20441;-70
2024/01/08 02:09:43;;;;;;;;;;;0.50;99.90;;;;;;2618669;47;19938;-71
2024/01/08 02:12:16;;;;;;;;;;;0.60;99.90;;;;;;2616283;54;19939;-68
2024/01/08 02:14:46;;;;;;;;;;;0.60;99.90;;;;;;2614773;54;19946;-67
2024/01/08 02:17:16;;;;;;;;;;;0.60;99.90;;;;;;2617217;39;20337;-69
2024/01/08 02:19:46;;;;;;;;;;;0.60;99.90;;;;;;2616979;54;19946;-68
2024/01/08 02:22:16;;;;;;;;;;;0.60;99.90;;;;;;2617015;54;19953;-69
2024/01/08 02:24:48;;;;;;;;;;;0.60;99.90;;;;;;2616971;54;20030;-70
2024/01/08 02:27:18;;;;;;;;;;;0.60;99.90;;;;;;2618765;47;19938;-69
2024/01/08 02:29:47;;;;;;;;;;;0.60;99.90;;;;;;2618574;50;19996;-69
2024/01/08 02:32:17;;;;;;;;;;;0.60;99.90;;;;;;2616462;54;19985;-68
2024/01/08 02:34:47;;;;;;;;;;;0.60;99.90;;;;;;2615737;54;20543;-68
2024/01/08 02:37:17;;;;;;;;;;;0.40;99.90;;;;;;2617331;47;19951;-69
2024/01/08 02:39:49;;;;;;;;;;;0.40;99.90;;;;;;2616667;54;19954;-70
2024/01/08 02:42:20;;;;;;;;;;;0.40;99.90;;;;;;2616535;54;19947;-70
2024/01/08 02:44:53;;;;;;;;;;;0.40;99.90;;;;;;2616435;54;19939;-68
2024/01/08 02:47:22;;;;;;;;;;;0.40;99.90;;;;;;2617478;47;19968;-70
2024/01/08 02:49:52;;;;;;;;;;;0.40;99.90;;;;;;2616919;54;19996;-68
2024/01/08 02:52:22;;;;;;;;;;;0.30;99.90;;;;;;2616545;54;19946;-68
2024/01/08 02:54:54;;;;;;;;;;;0.20;99.90;;;;;;2615164;47;19946;-68
2024/01/08 02:57:24;;;;;;;;;;;0.30;99.90;;;;;;2617059;54;19969;-70
2024/01/08 02:59:53;;;;;;;;;;;0.30;99.90;;;;;;2617343;39;20353;-68
2024/01/08 03:02:23;;;;;;;;;;;0.30;99.90;;;;;;2615520;47;20016;-68
2024/01/08 03:04:54;;;;;;;;;;;0.30;99.90;;;;;;2617173;54;19954;-68
2024/01/08 03:07:24;;;;;;;;;;;0.30;99.90;;;;;;2619874;54;19946;-69
2024/01/08 03:09:58;;;;;;;;;;;0.30;99.90;;;;;;2617977;54;19953;-69
2024/01/08 03:12:28;;;;;;;;;;;0.30;99.90;;;;;;2619124;54;19954;-68
2024/01/08 03:14:57;;;;;;;;;;;0.30;99.90;;;;;;2621112;39;20408;-69
2024/01/08 03:17:27;;;;;;;;;;;0.30;99.90;;;;;;2621132;47;20042;-67
2024/01/08 03:19:57;;;;;;;;;;;0.30;99.90;;;;;;2618262;54;19938;-70
2024/01/08 03:22:27;;;;;;;;;;;0.30;99.90;;;;;;2620880;54;19953;-69
2024/01/08 03:24:59;;;;;;;;;;;0.40;99.90;;;;;;2622151;46;20054;-69
2024/01/08 03:27:28;;;;;;;;;;;0.50;99.90;;;;;;2623390;54;19946;-68
2024/01/08 03:29:58;;;;;;;;;;;0.60;99.90;;;;;;2622422;54;20011;-68
2024/01/08 03:32:28;;;;;;;;;;;1.80;99.90;;;;;;2617239;54;19946;-68
2024/01/08 03:34:58;;;;;;;;;;;0.60;99.90;;;;;;2618442;54;19938;-69
2024/01/08 03:37:27;;;;;;;;;;;0.50;99.90;;;;;;2618672;54;20038;-69
2024/01/08 03:40:02;;;;;;;;;;;0.40;99.90;;;;;;2617800;54;19957;-69
2024/01/08 03:42:32;;;;;;;;;;;0.50;99.90;;;;;;2617176;54;19946;-68
2024/01/08 03:45:01;;;;;;;;;;;0.40;99.90;;;;;;2616123;54;19985;-68
2024/01/08 03:47:31;;;;;;;;;;;0.40;99.90;;;;;;2617928;39;20328;-68
2024/01/08 03:50:01;;;;;;;;;;;0.40;99.90;;;;;;2617379;47;19946;-68
2024/01/08 03:52:30;;;;;;;;;;;0.40;99.90;;;;;;2617684;47;19973;-68
2024/01/08 03:55:02;;;;;;;;;;;0.40;99.90;;;;;;2616680;54;19945;-69
2024/01/08 03:57:32;;;;;;;;;;;0.40;99.90;;;;;;2617318;54;19938;-69
2024/01/08 04:00:02;;;;;;;;;;;1.30;99.90;;;;;;2618981;54;20029;-68
2024/01/08 04:02:31;;;;;;;;;;;0.30;99.90;;;;;;2616257;39;20364;-68
2024/01/08 04:05:01;;;;;;;;;;;0.10;99.90;;;;;;2616276;49;19946;-69
2024/01/08 04:07:31;;;;;;;;;;;0.10;99.90;;;;;;2617679;54;19939;-69
2024/01/08 04:10:04;;;;;;;;;;;0.10;99.90;;;;;;2620259;39;20340;-71
2024/01/08 04:12:34;;;;;;;;;;;0.10;99.90;;;;;;2620418;46;19947;-69
2024/01/08 04:15:03;;;;;;;;;;;0.20;99.90;;;;;;2616634;54;20501;-69
2024/01/08 04:17:33;;;;;;;;;;;0.20;99.90;;;;;;2617104;54;19939;-69
2024/01/08 04:20:03;;;;;;;;;;;0.20;99.90;;;;;;2613442;47;20049;-68
2024/01/08 04:22:33;;;;;;;;;;;0.30;99.90;;;;;;2617211;47;19946;-68
2024/01/08 04:25:05;;;;;;;;;;;0.30;99.90;;;;;;2616770;39;20334;-69
2024/01/08 04:27:35;;;;;;;;;;;0.20;99.90;;;;;;2617619;54;19946;-69
2024/01/08 04:30:05;;;;;;;;;;;0.20;99.90;;;;;;2617957;47;19951;-69
2024/01/08 04:32:35;;;;;;;;;;;0.10;99.90;;;;;;2617858;54;19951;-69
2024/01/08 04:35:05;;;;;;;;;;;0.20;99.90;;;;;;2616921;54;19984;-70
2024/01/08 04:37:35;;;;;;;;;;;0.20;99.90;;;;;;2617843;47;19939;-69
2024/01/08 04:40:08;;;;;;;;;;;0.10;99.90;;;;;;2616941;54;20459;-69
2024/01/08 04:42:37;;;;;;;;;;;0.20;99.90;;;;;;2617583;54;19954;-71
2024/01/08 04:45:07;;;;;;;;;;;0.20;99.90;;;;;;2617214;47;19951;-69
2024/01/08 04:47:37;;;;;;;;;;;0.20;99.90;;;;;;2617242;54;19947;-70
2024/01/08 04:50:08;;;;;;;;;;;0.20;99.90;;;;;;2617639;54;20583;-69
2024/01/08 04:52:38;;;;;;;;;;;0.20;99.90;;;;;;2617550;39;20367;-69
2024/01/08 04:55:10;;;;;;;;;;;0.20;99.90;;;;;;2617093;47;20358;-69
2024/01/08 04:57:40;;;;;;;;;;;0.30;99.90;;;;;;2617612;47;19946;-70
2024/01/08 05:00:10;;;;;;;;;;;0.30;99.90;;;;;;2615882;39;20191;-69
2024/01/08 05:02:40;;;;;;;;;;;0.30;99.90;;;;;;2615719;54;19947;-70
2024/01/08 05:05:11;;;;;;;;;;;0.30;99.90;;;;;;2615481;54;19954;-69
2024/01/08 05:07:41;;;;;;;;;;;0.40;99.90;;;;;;2615996;47;19953;-69
2024/01/08 05:10:13;;;;;;;;;;;1.30;99.90;;;;;;2615781;54;19953;-70
2024/01/08 05:12:43;;;;;;;;;;;0.60;99.90;;;;;;2615960;54;19946;-70
2024/01/08 05:15:13;;;;;;;;;;;0.50;99.90;;;;;;2616688;54;19957;-70
2024/01/08 05:17:42;;;;;;;;;;;0.50;99.90;;;;;;2616760;54;19946;-70
2024/01/08 05:20:12;;;;;;;;;;;0.60;99.90;;;;;;2616005;54;20085;-69
2024/01/08 05:22:43;;;;;;;;;;;0.60;99.90;;;;;;2616186;39;20371;-69
2024/01/08 05:25:15;;;;;;;;;;;0.60;99.90;;;;;;2615677;47;19977;-70
2024/01/08 05:27:45;;;;;;;;;;;0.70;99.90;;;;;;2615171;54;19951;-69
2024/01/08 05:30:15;;;;;;;;;;;0.80;99.90;;;;;;2616284;54;19947;-70
2024/01/08 05:32:45;;;;;;;;;;;0.80;99.90;;;;;;2616375;54;19965;-68
2024/01/08 05:35:15;;;;;;;;;;;0.70;99.90;;;;;;2615574;54;19950;-69
2024/01/08 05:37:44;;;;;;;;;;;0.60;99.90;;;;;;2616078;54;19968;-69
2024/01/08 05:40:17;;;;;;;;;;;0.50;99.90;;;;;;2616057;54;19953;-70
2024/01/08 05:42:47;;;;;;;;;;;0.50;99.90;;;;;;2615775;47;19939;-69
2024/01/08 05:45:16;;;;;;;;;;;0.50;99.90;;;;;;2615975;54;19946;-70
2024/01/08 05:47:47;;;;;;;;;;;0.60;99.90;;;;;;2616006;54;20463;-70
2024/01/08 05:50:17;;;;;;;;;;;0.70;99.90;;;;;;2616496;54;19958;-69
2024/01/08 05:52:47;;;;;;;;;;;0.80;99.90;;;;;;2620371;54;20061;-69
2024/01/08 05:55:19;;;;;;;;;;;2.20;99.90;;;;;;2614877;47;20444;-69
2024/01/08 05:57:49;;;;;;;;;;;0.70;99.90;;;;;;2616148;54;19946;-70
2024/01/08 06:00:19;;;;;;;;;;;0.60;99.90;;;;;;2615914;39;20110;-70
2024/01/08 06:02:49;;;;;;;;;;;0.60;99.90;;;;;;2616045;54;19945;-69
2024/01/08 06:05:19;;;;;;;;;;;0.40;99.90;;;;;;2616412;47;20456;-70
2024/01/08 06:07:49;;;;;;;;;;;0.50;99.90;;;;;;2616817;39;20435;-70
2024/01/08 06:10:22;;;;;;;;;;;0.50;99.90;;;;;;2615676;54;19947;-70
2024/01/08 06:12:51;;;;;;;;;;;0.60;99.90;;;;;;2615490;54;19947;-69
2024/01/08 06:15:21;;;;;;;;;;;0.50;99.90;;;;;;2615269;54;19968;-69
2024/01/08 06:17:51;;;;;;;;;;;0.50;99.90;;;;;;2614812;47;19951;-68
2024/01/08 06:20:20;;;;;;;;;;;0.60;99.90;;;;;;2615936;54;19953;-72
2024/01/08 06:22:50;;;;;;;;;;;0.70;99.90;;;;;;2615864;47;19954;-69
2024/01/08 06:25:22;;;;;;;;;;;0.50;99.90;;;;;;2618984;54;19950;-70
2024/01/08 06:27:52;;;;;;;;;;;0.50;99.90;;;;;;2618689;47;19988;-70
2024/01/08 06:30:22;;;;;;;;;;;0.60;99.90;;;;;;2621973;54;19947;-69
2024/01/08 06:32:52;;;;;;;;;;;0.60;99.90;;;;;;2618447;54;19954;-70
2024/01/08 06:35:23;;;;;;;;;;;0.60;99.90;;;;;;2615971;47;19946;-71
2024/01/08 06:37:53;;;;;;;;;;;0.60;99.90;;;;;;2616191;54;19972;-71
2024/01/08 06:40:27;;;;;;;;;;;0.60;99.90;;;;;;2615682;54;19946;-70
2024/01/08 06:42:56;;;;;;;;;;;0.60;99.90;;;;;;2616144;54;19954;-70
2024/01/08 06:45:30;;;;;;;;;;;0.50;99.90;;;;;;2615936;54;19958;-70
2024/01/08 06:48:01;;;;;;;;;;;0.40;99.90;;;;;;2616014;47;20433;-70
2024/01/08 06:50:31;;;;;;;;;;;0.50;99.90;;;;;;2615449;47;19957;-69
2024/01/08 06:53:00;;;;;;;;;;;0.40;99.90;;;;;;2615380;54;19992;-70
2024/01/08 06:55:33;;;;;;;;;;;0.30;99.90;;;;;;2615497;54;19938;-69
2024/01/08 06:58:02;;;;;;;;;;;0.30;99.90;;;;;;2615921;54;19946;-69
2024/01/08 07:00:32;;;;;;;;;;;0.30;99.90;;;;;;2614155;54;19939;-71
2024/01/08 07:03:02;;;;;;;;;;;0.40;99.90;;;;;;2616022;54;20029;-72
2024/01/08 07:05:32;;;;;;;;;;;0.50;99.90;;;;;;2617464;54;19958;-71
2024/01/08 07:08:05;;;;;;;;;;;0.50;99.90;;;;;;2617071;54;20072;-71
2024/01/08 07:10:37;;;;;;;;;;;0.60;99.90;;;;;;2616936;47;20003;-71
2024/01/08 07:13:07;;;;;;;;;;;0.40;99.90;;;;;;2617352;54;20539;-70
2024/01/08 07:15:39;;;;;;;;;;;0.30;99.90;;;;;;2616891;54;19947;-70
2024/01/08 07:18:11;;;;;;;;;;;0.20;99.90;;;;;;2617287;54;19939;-69
2024/01/08 07:20:41;;;;;;;;;;;0.20;99.90;;;;;;2617596;54;19953;-69
2024/01/08 07:23:12;;;;;;;;;;;0.10;99.90;;;;;;2616565;49;19954;-70
2024/01/08 07:25:45;;;;;;;;;;;0.10;99.90;;;;;;2616551;51;19958;-70
2024/01/08 07:28:16;;;;;;;;;;;0.20;99.90;;;;;;2619506;47;19953;-70
2024/01/08 07:30:46;;;;;;;;;;;0.20;99.90;;;;;;2623053;54;19950;-70
2024/01/08 07:33:16;;;;;;;;;;;0.20;99.90;;;;;;2622689;54;19989;-70
2024/01/08 07:35:46;;;;;;;;;;;0.20;99.90;;;;;;2620088;47;19988;-71
2024/01/08 07:38:16;;;;;;;;;;;0.30;99.90;;;;;;2617663;54;19939;-70
2024/01/08 07:40:52;;;;;;;;;;;0.40;99.90;;;;;;2617891;54;19946;-72
2024/01/08 07:43:22;;;;;;;;;;;0.50;99.90;;;;;;2617177;54;19984;-69
2024/01/08 07:45:52;;;;;;;;;;;0.60;99.90;;;;;;2615901;47;19945;-70
2024/01/08 07:48:21;;;;;;;;;;;0.60;99.90;;;;;;2616730;54;19953;-71
2024/01/08 07:50:51;;;;;;;;;;;0.70;99.90;;;;;;2617538;54;19989;-70
2024/01/08 07:53:21;;;;;;;;;;;0.70;99.90;;;;;;2616704;54;19952;-72
2024/01/08 07:55:53;;;;;;;;;;;0.70;99.90;;;;;;2618187;39;20348;-70
2024/01/08 07:58:23;;;;;;;;;;;0.70;99.90;;;;;;2622164;54;19950;-71
2024/01/08 08:01:04;;;;;;;;;;;0.80;99.90;;;;;;2622119;54;19953;-70
2024/01/08 08:03:34;;;;;;;;;;;0.80;99.90;;;;;;2616810;54;19970;-69
2024/01/08 08:06:03;;;;;;;;;;;0.80;99.90;;;;;;2616789;54;19954;-71
2024/01/08 08:08:34;;;;;;;;;;;0.90;99.90;;;;;;2617115;47;19938;-68
2024/01/08 08:11:06;;;;;;;;;;;1.00;99.90;;;;;;2616178;54;19939;-69
2024/01/08 08:13:36;;;;;;;;;;;1.00;99.90;;;;;;2617187;47;19958;-69
2024/01/08 08:16:06;;;;;;;;;;;1.00;99.90;;;;;;2616855;54;19958;-70
2024/01/08 08:18:36;;;;;;;;;;;0.90;99.90;;;;;;2617522;47;19951;-70
2024/01/08 08:21:06;;;;;;;;;;;1.00;99.90;;;;;;2617675;31;20417;-69
2024/01/08 08:23:35;;;;;;;;;;;1.00;99.90;;;;;;2616607;39;20388;-70
2024/01/08 08:26:08;;;;;;;;;;;0.90;99.90;;;;;;2615758;54;19957;-70
2024/01/08 08:28:43;;;;;;;;;;;1.00;99.90;;;;;;2616691;54;19947;-72
2024/01/08 08:31:13;;;;;;;;;;;1.00;99.90;;;;;;2620003;54;20025;-71
2024/01/08 08:33:43;;;;;;;;;;;1.10;99.90;;;;;;2617907;54;19987;-70
2024/01/08 08:36:13;;;;;;;;;;;1.10;99.90;;;;;;2616282;47;19939;-70
2024/01/08 08:38:45;;;;;;;;;;;1.20;99.90;;;;;;2617159;39;20002;-71
2024/01/08 08:41:19;;;;;;;;;;;1.20;99.90;;;;;;2616612;54;19939;-70
2024/01/08 08:43:49;;;;;;;;;;;1.20;99.90;;;;;;2618428;39;20817;-69
2024/01/08 08:46:19;;;;;;;;;;;1.10;99.90;;;;;;2617460;54;19946;-69
2024/01/08 08:48:48;;;;;;;;;;;1.20;99.90;;;;;;2616818;54;20013;-71
2024/01/08 08:51:18;;;;;;;;;;;1.20;99.90;;;;;;2616110;54;19939;-72
2024/01/08 08:53:47;;;;;;;;;;;1.20;99.90;;;;;;2616229;54;19957;-70
2024/01/08 08:56:20;;;;;;;;;;;1.20;99.90;;;;;;2615702;54;20477;-70
2024/01/08 08:58:49;;;;;;;;;;;1.20;99.90;;;;;;2617299;54;20046;-70
2024/01/08 09:01:19;;;;;;;;;;;1.20;99.90;;;;;;2617931;54;20037;-70
2024/01/08 09:03:49;;;;;;;;;;;1.20;99.90;;;;;;2616635;39;20781;-69
2024/01/08 09:06:20;;;;;;;;;;;1.20;99.90;;;;;;2615952;54;19950;-70
2024/01/08 09:08:50;;;;;;;;;;;1.20;99.90;;;;;;2616140;54;19996;-70
2024/01/08 09:11:22;;;;;;;;;;;1.30;99.90;;;;;;2615699;54;19943;-71
2024/01/08 09:13:52;;;;;;;;;;;1.30;99.90;;;;;;2616812;54;19939;-71
2024/01/08 09:16:23;;;;;;;;;;;1.30;99.90;;;;;;2615466;54;19946;-71
2024/01/08 09:18:52;;;;;;;;;;;1.20;99.90;;;;;;2615973;54;19947;-70
2024/01/08 09:21:22;;;;;;;;;;;1.00;99.90;;;;;;2615690;54;20467;-70
2024/01/08 09:23:52;;;;;;;;;;;1.10;99.90;;;;;;2617532;54;19939;-70
2024/01/08 09:26:25;;;;;;;;;;;1.10;99.90;;;;;;2615243;54;20516;-70
2024/01/08 09:28:55;;;;;;;;;;;1.10;99.90;;;;;;2616317;46;20501;-70
2024/01/08 09:31:24;;;;;;;;;;;1.10;99.90;;;;;;2616552;54;19947;-70
2024/01/08 09:33:54;;;;;;;;;;;1.20;99.90;;;;;;2618845;47;19960;-73
2024/01/08 09:36:24;;;;;;;;;;;1.20;99.90;;;;;;2621358;39;20591;-75
2024/01/08 09:38:54;;;;;;;;;;;1.20;99.90;;;;;;2616750;47;20550;-74
2024/01/08 09:41:26;;;;;;;;;;;1.10;99.90;;;;;;2616835;47;19938;-72
2024/01/08 09:43:57;;;;;;;;;;;0.90;99.90;;;;;;2617597;39;20180;-73
2024/01/08 09:46:29;;;;;;;;;;;0.80;99.90;;;;;;2619246;47;19953;-72
2024/01/08 09:48:58;;;;;;;;;;;0.80;99.90;;;;;;2622233;47;19950;-71
2024/01/08 09:51:28;;;;;;;;;;;0.80;99.90;;;;;;2621159;54;19938;-72
2024/01/08 09:53:59;;;;;;;;;;;0.70;99.90;;;;;;2620945;47;19953;-71
2024/01/08 09:56:32;;;;;;;;;;;0.70;99.90;;;;;;2621520;54;19947;-74
2024/01/08 09:59:02;;;;;;;;;;;0.40;99.90;;;;;;2623220;51;19951;-74
2024/01/08 10:01:31;;;;;;;;;;;0.40;99.90;;;;;;2623862;47;20610;-74
2024/01/08 10:04:02;;;;;;;;;;;0.40;99.90;;;;;;2622945;47;19945;-73
2024/01/08 10:06:32;;;;;;;;;;;0.30;99.90;;;;;;2620899;47;19994;-83
2024/01/08 10:09:04;;;;;;;;;;;0.10;99.90;;;;;;2629202;47;19966;-84
2024/01/08 10:11:36;;;;;;;;;;;-0.10;99.90;;;;;;2619993;47;19947;-74
2024/01/08 10:14:08;;;;;;;;;;;-0.20;99.90;;;;;;2618484;54;19950;-72
2024/01/08 10:16:38;;;;;;;;;;;-0.10;99.90;;;;;;2617766;54;19950;-73
2024/01/08 10:19:27;;;;;;;;;;;0.50;99.90;;;;;;2621731;39;20325;-72
2024/01/08 10:22:18;;;;;;;;;;;-0.10;99.90;;;;;;2620601;47;19953;-73
2024/01/08 10:24:48;;;;;;;;;;;0.00;99.90;;;;;;2621147;47;20511;-72
2024/01/08 10:27:21;;;;;;;;;;;0.10;99.90;;;;;;2622186;47;19946;-71
2024/01/08 10:29:50;;;;;;;;;;;0.20;99.90;;;;;;2618406;47;19954;-72
2024/01/08 10:32:20;;;;;;;;;;;0.30;99.90;;;;;;2620293;54;19946;-75
2024/01/08 10:34:50;;;;;;;;;;;0.20;99.90;;;;;;2620770;54;19977;-72
2024/01/08 10:37:20;;;;;;;;;;;0.40;99.90;;;;;;2619171;47;19953;-74
2024/01/08 10:39:49;;;;;;;;;;;0.20;99.90;;;;;;2620636;54;19946;-73
2024/01/08 10:42:23;;;;;;;;;;;0.10;99.90;;;;;;2620932;54;19996;-73
2024/01/08 10:44:52;;;;;;;;;;;0.10;99.90;;;;;;2619612;54;19939;-73
2024/01/08 10:47:26;;;;;;;;;;;0.10;99.90;;;;;;2620699;54;19946;-76
2024/01/08 10:49:58;;;;;;;;;;;0.10;99.90;;;;;;2621053;54;20441;-74
2024/01/08 10:52:30;;;;;;;;;;;0.20;99.90;;;;;;2618881;47;20069;-71
2024/01/08 10:55:04;;;;;;;;;;;0.30;99.90;;;;;;2615205;54;19947;-74
2024/01/08 10:57:44;;;;;;;;;;;0.60;99.90;;;;;;2612876;47;19969;-74
2024/01/08 11:00:13;;;;;;;;;;;0.60;99.90;;;;;;2613080;47;19957;-75
2024/01/08 11:02:44;;;;;;;;;;;0.60;99.90;;;;;;2614694;54;19958;-76
2024/01/08 11:05:16;;;;;;;;;;;0.60;99.90;;;;;;2616441;46;19957;-75
2024/01/08 11:07:50;;;;;;;;;;;1.40;99.90;;;;;;2626656;54;19950;-73
2024/01/08 11:10:20;;;;;;;;;;;0.80;99.90;;;;;;2625150;54;21432;-74
2024/01/08 11:12:59;;;;;;;;;;;0.70;99.90;;;;;;2624884;54;19950;-73
2024/01/08 11:15:29;;;;;;;;;;;0.60;99.90;;;;;;2623303;46;19939;-73
2024/01/08 11:18:03;;;;;;;;;;;0.60;99.90;;;;;;2621978;54;19987;-74
2024/01/08 11:20:43;;;;;;;;;;;0.40;99.90;;;;;;2617505;47;20080;-73
2024/01/08 11:23:28;;;;;;;;;;;0.30;99.90;;;;;;2618112;46;19946;-75
2024/01/08 11:25:58;;;;;;;;;;;0.40;99.90;;;;;;2617617;54;19947;-75
2024/01/08 11:28:31;;;;;;;;;;;0.50;99.90;;;;;;2619537;47;20065;-76
2024/01/08 11:31:12;;;;;;;;;;;0.70;99.90;;;;;;2618075;47;19953;-73
2024/01/08 11:33:50;;;;;;;;;;;0.80;99.90;;;;;;2623975;47;19939;-72
2024/01/08 11:36:25;;;;;;;;;;;0.90;99.90;;;;;;2623582;47;19951;-74
2024/01/08 11:39:13;;;;;;;;;;;0.90;99.90;;;;;;2620651;54;19946;-73
2024/01/08 11:41:42;;;;;;;;;;;0.80;99.90;;;;;;2617171;47;20000;-74
2024/01/08 11:44:16;;;;;;;;;;;0.60;99.90;;;;;;2617663;54;19954;-73
2024/01/08 11:46:46;;;;;;;;;;;1.00;99.90;;;;;;2618126;46;19958;-75
2024/01/08 11:49:16;;;;;;;;;;;0.40;99.90;;;;;;2618494;54;19961;-74
2024/01/08 11:51:47;;;;;;;;;;;0.30;99.90;;;;;;2617003;54;19946;-74
2024/01/08 19:31:36;;;;;;;;;;;0.30;99.90;;;;;;2621115;39;20362;-73
2024/01/08 19:34:06;;;;;;;;;;;-2.20;99.90;;;;;;2626236;47;19977;-73
2024/01/08 19:36:36;;;;;;;;;;;-2.20;99.90;;;;;;2625260;47;20055;-72
2024/01/08 19:39:05;;;;;;;;;;;-2.20;99.90;;;;;;2615607;54;19953;-69
2024/01/08 19:41:35;;;;;;;;;;;-2.30;99.90;;;;;;2617243;47;19947;-71
2024/01/08 19:44:06;;;;;;;;;;;-2.20;99.90;;;;;;2617644;39;19993;-70
2024/01/08 19:46:39;;;;;;;;;;;-2.30;99.90;;;;;;2615823;47;19950;-68
2024/01/08 19:49:09;;;;;;;;;;;-2.30;99.90;;;;;;2616416;47;19953;-72
2024/01/08 19:51:53;;;;;;;;;;;-2.30;99.90;;;;;;2617989;47;19939;-70
2024/01/08 19:54:23;;;;;;;;;;;-2.30;99.90;;;;;;2617084;47;19953;-70
2024/01/08 19:56:53;;;;;;;;;;;-2.30;99.90;;;;;;2618148;47;19953;-70
2024/01/08 19:59:22;;;;;;;;;;;-2.20;99.90;;;;;;2618822;54;19958;-71
2024/01/08 20:01:57;;;;;;;;;;;-2.10;99.90;;;;;;2622990;47;19988;-70
2024/01/08 20:04:27;;;;;;;;;;;-2.10;99.90;;;;;;2622057;51;19950;-69
2024/01/08 20:06:57;;;;;;;;;;;-1.90;99.90;;;;;;2619383;54;19947;-70
2024/01/08 20:09:27;;;;;;;;;;;-1.90;99.90;;;;;;2617552;47;20728;-70
2024/01/08 20:11:57;;;;;;;;;;;-2.00;99.90;;;;;;2617517;47;20053;-72
2024/01/08 20:14:30;;;;;;;;;;;-2.00;99.90;;;;;;2617327;54;19965;-69
2024/01/08 20:17:03;;;;;;;;;;;-1.90;99.90;;;;;;2616890;54;19947;-72
2024/01/08 20:19:34;;;;;;;;;;;-1.80;99.90;;;;;;2623252;47;19946;-71
2024/01/08 20:22:04;;;;;;;;;;;-2.50;99.90;;;;;;2623495;47;19954;-71
2024/01/08 20:24:34;;;;;;;;;;;-2.00;99.90;;;;;;2617981;54;20436;-70
2024/01/08 20:27:04;;;;;;;;;;;-2.10;99.90;;;;;;2617084;54;20029;-70
2024/01/08 20:29:33;;;;;;;;;;;-2.10;99.90;;;;;;2618024;47;19938;-71
2024/01/08 20:32:06;;;;;;;;;;;-2.10;99.90;;;;;;2617746;47;19954;-72
2024/01/08 20:34:36;;;;;;;;;;;-2.10;99.90;;;;;;2617536;47;20429;-71
2024/01/08 20:37:06;;;;;;;;;;;-2.10;99.90;;;;;;2617338;54;19988;-70
2024/01/08 20:39:36;;;;;;;;;;;-2.20;99.90;;;;;;2617510;54;20029;-70
2024/01/08 20:42:07;;;;;;;;;;;-2.30;99.90;;;;;;2616963;54;19947;-71
2024/01/08 20:44:36;;;;;;;;;;;-2.30;99.90;;;;;;2616995;54;19959;-72
2024/01/08 20:47:09;;;;;;;;;;;-2.30;99.90;;;;;;2615963;47;20078;-71
2024/01/08 20:49:38;;;;;;;;;;;-2.30;99.90;;;;;;2617699;54;20013;-72
2024/01/08 20:52:09;;;;;;;;;;;-2.10;99.90;;;;;;2617442;54;19973;-72
2024/01/08 20:54:38;;;;;;;;;;;-2.00;99.90;;;;;;2615588;47;19947;-71
2024/01/08 20:57:08;;;;;;;;;;;-1.90;99.90;;;;;;2616527;54;20676;-72
2024/01/08 20:59:39;;;;;;;;;;;-1.80;99.90;;;;;;2616257;54;19946;-71
2024/01/08 21:02:12;;;;;;;;;;;-1.90;99.90;;;;;;2618175;47;19953;-73
2024/01/08 21:04:44;;;;;;;;;;;-1.80;99.90;;;;;;2621088;54;19947;-71
2024/01/08 21:07:14;;;;;;;;;;;-1.90;99.90;;;;;;2618414;47;19945;-71
2024/01/08 21:09:46;;;;;;;;;;;-1.90;99.90;;;;;;2616686;47;19958;-73
2024/01/08 21:12:17;;;;;;;;;;;-1.90;99.90;;;;;;2615429;47;19996;-73
2024/01/08 21:14:48;;;;;;;;;;;-1.90;99.90;;;;;;2616643;47;19946;-70
2024/01/08 21:17:21;;;;;;;;;;;-1.80;99.90;;;;;;2616868;47;19946;-70
2024/01/08 21:19:50;;;;;;;;;;;-1.70;99.90;;;;;;2616229;47;19996;-68
2024/01/08 21:22:20;;;;;;;;;;;-1.70;99.90;;;;;;2615775;54;19950;-70
2024/01/08 21:24:50;;;;;;;;;;;-1.70;99.90;;;;;;2616084;54;19950;-69
2024/01/08 21:27:19;;;;;;;;;;;-1.60;99.90;;;;;;2616692;54;19947;-69
2024/01/08 21:29:49;;;;;;;;;;;-1.60;99.90;;;;;;2615664;47;19996;-71
2024/01/08 21:32:21;;;;;;;;;;;-1.70;99.90;;;;;;2616716;54;19954;-69
2024/01/08 21:34:51;;;;;;;;;;;-1.70;99.90;;;;;;2618883;47;19947;-70
2024/01/08 21:37:21;;;;;;;;;;;-1.70;99.90;;;;;;2625635;47;19938;-70
2024/01/08 21:39:51;;;;;;;;;;;-1.70;99.90;;;;;;2622246;54;19952;-70
2024/01/08 21:42:21;;;;;;;;;;;-1.70;99.90;;;;;;2620467;47;19990;-70
2024/01/08 21:44:50;;;;;;;;;;;-1.80;99.90;;;;;;2620568;54;19951;-72
2024/01/08 21:47:24;;;;;;;;;;;-1.70;99.90;;;;;;2619809;47;19947;-71
2024/01/08 21:49:54;;;;;;;;;;;-1.70;99.90;;;;;;2621478;54;19988;-74
2024/01/08 21:52:23;;;;;;;;;;;-1.60;99.90;;;;;;2621931;54;19943;-71
2024/01/08 21:54:53;;;;;;;;;;;-1.60;99.90;;;;;;2619801;54;19958;-71
2024/01/08 21:57:23;;;;;;;;;;;-1.60;99.90;;;;;;2620038;54;19953;-71
2024/01/08 21:59:53;;;;;;;;;;;-1.50;99.90;;;;;;2618599;54;19989;-70
2024/01/08 22:02:25;;;;;;;;;;;-1.50;99.90;;;;;;2617447;47;19958;-71
2024/01/08 22:04:56;;;;;;;;;;;-1.50;99.90;;;;;;2617524;54;19954;-72
2024/01/08 22:07:26;;;;;;;;;;;-1.50;99.90;;;;;;2616885;54;19992;-71
2024/01/08 22:09:56;;;;;;;;;;;-1.50;99.90;;;;;;2617750;54;19953;-73
2024/01/08 22:12:25;;;;;;;;;;;-1.50;99.90;;;;;;2623864;54;19956;-70
2024/01/08 22:14:55;;;;;;;;;;;-1.50;99.90;;;;;;2623731;54;19950;-70
2024/01/08 22:17:27;;;;;;;;;;;-1.50;99.90;;;;;;2625030;54;19984;-72
2024/01/08 22:19:57;;;;;;;;;;;-1.40;99.90;;;;;;2624828;54;19946;-70
2024/01/08 22:22:27;;;;;;;;;;;-1.40;99.90;;;;;;2625189;54;20470;-71
2024/01/08 22:24:57;;;;;;;;;;;-1.40;99.90;;;;;;2624858;54;19992;-72